Aviation Digital Data Service (ADDS)

Output produced by METARs form (1634 UTC 16 June 2019)
found at http://www.aviationweather.gov/metar/data/
 
ENAT 161550Z 01004KT 310V060 CAVOK 11/03 Q1015 RMK WIND 700FT 03008KT
TAF ENAT 161400Z 1615/1621 34009KT 9999 FEW030
       
ENAN 161620Z 04020KT 9999 FEW008 09/06 Q1014
TAF ENAN 1612/1712 05018KT 9999 SCT008 
     PROB40 1612/1618 BKN010 
     BECMG 1620/1622 BKN006
       
ENML 161620Z 31011KT 280V340 9999 FEW012 SCT030 BKN065 17/12 Q1012
TAF ENML 161400Z 1615/1622 27008KT 9999 -RA SCT035 BKN050 
     PROB30 1617/1622 BKN010
       
ENNA 161620Z 34016KT CAVOK 13/01 Q1013 RMK WIND 1800FT 32023KT
TAF AMD ENNA 1614/1712 34008KT 9999 SCT030 
     TEMPO 1614/1618 36018KT 
     PROB40 
     TEMPO 1700/1705 BKN014
       
ENDU 161620Z 01006KT 310V050 CAVOK 16/05 Q1012 RMK WIND 1100FT 02005KT WIND 2200FT 35010KT
TAF ENDU 1612/1712 02008KT CAVOK
       
ENBS 161550Z 28020KT 9999 FEW015 BKN022 06/02 Q1010
ENBR 161620Z 20010KT 9999 BKN006 13/11 Q1014 TEMPO SCT006 RMK WIND 1200FT 21015KT
TAF ENBR 1612/1712 18010KT 9999 SCT005 BKN012 
     BECMG 1612/1614 FEW010 SCT040 
     TEMPO 1614/1621 BKN009 
     TEMPO 1709/1712 17015G25KT SHRA BKN012 SCT020CB
       
ENBO 161620Z 36008KT 9999 FEW030 16/10 Q1011 NOSIG
TAF ENBO 1612/1712 35007KT 9999 FEW006 
     PROB40 1700/1709 BKN006 
     BECMG 1700/1703 24015KT
       
ENBL 161620Z 26007KT 9999 FEW020 SCT035 BKN055 16/11 Q1013
ENBN 161620Z 34009KT CAVOK 16/11 Q1010
TAF ENBN 161400Z 1615/1619 35009KT CAVOK
       
ENEV 161550Z 35014KT 320V020 CAVOK 14/06 Q1012 RMK WIND 1400FT 01015KT
TAF ENEV 161400Z 1615/1621 34008KT CAVOK
       
ENFL 161620Z 24009KT 210V270 9999 FEW015 SCT050 15/12 Q1014
TAF ENFL 160500Z 1607/1611 VRB06KT 9999 -RADZ FEW010 SCT018 BKN040 
     BECMG 1609/1611 19015KT BKN012
       
ENHK 161350Z 29012KT 9999 FEW014 BKN020 08/04 Q1016
ENHD 161620Z 21012KT 9999 SCT009 BKN013 14/10 Q1015
TAF ENHD 161400Z 1615/1622 19012KT 9999 FEW008 SCT040 
     PROB40 
     TEMPO 1615/1618 BKN006
       
ENKR 161620Z 34014KT 9999 FEW041 11/01 Q1011 RMK WIND 731FT 30019KT
TAF ENKR 161400Z 1615/1624 31018KT 9999 FEW030 
     BECMG 1619/1621 31008KT
       
ENMS 161620Z 32010KT CAVOK 22/11 Q1009 RMK WIND 412FT 36007KT 310V050
ENCN 161620Z 19013KT 9999 FEW011 16/14 Q1016
TAF ENCN 161400Z 1615/1622 20015KT CAVOK 
     BECMG 1620/1622 VRB03KT
       
ENKB 161620Z 27014KT 9999 SCT010 BKN022 14/11 Q1013 RMK WIND 745FT 28018KT
TAF ENKB 161400Z 1615/1621 26010KT 9999 -RA FEW008 BKN040 
     PROB40 1616/1621 4000 -DZ BKN007
       
ENNO 151350Z 00000KT 9999 FEW006 BKN014 BKN026 17/15 Q1014
ENOL 161620Z 28004KT 9999 FEW040 SCT085 BKN100 15/13 Q1011 NOSIG
TAF ENOL 1612/1712 33008KT 9999 FEW030 SCT200 
     PROB30 
     TEMPO 1615/1618 TSRA SCT030CB BKN040 
     BECMG 1615/1618 27012KT 
     BECMG 1619/1622 -RADZ BKN014 
     TEMPO 1622/1706 4000 RADZ BR BKN006 
     BECMG 1704/1707 VRB07KT FEW012 BKN040
       
ENGM 161620Z 20007KT 9000 VCSH SCT004 BKN023 16/14 Q1014 TEMPO 4000 BKN010
TAF ENGM 1612/1712 18008KT 9999 FEW030 BKN050 
     BECMG 1615/1617 BKN010 
     TEMPO 1616/1622 4000 -DZ BR BKN006 
     BECMG 1622/1624 FEW015 
     PROB30 1700/1705 0500 FG VV001
       
ENRO 161620Z 12006KT CAVOK 18/10 Q1012
TAF ENRO 161400Z 1615/1620 22007KT 9999 FEW035 BKN060
       
ENRY 161620Z AUTO 18010KT 140V200 9999NDV BKN031/// 17/12 Q1015
TAF ENRY 1612/1712 19010KT 9999 SCT008 BKN020 
     BECMG 1612/1613 BKN010 
     TEMPO 1612/1616 3000 -RADZ BR BKN004 
     BECMG 1616/1618 FEW008 SCT030
       
ENSO 161620Z 20005KT 9999 FEW016 SCT060 16/12 Q1015
TAF ENSO 161400Z 1615/1618 21010KT 9999 FEW009 
     PROB40 
     TEMPO 1615/1618 BKN008
       
ENSG 161550Z VRB02KT 9999 FEW/// BKN042 15/15 Q1013 RMK WIND 3806FT 22006KT
ENSR 161550Z 35011KT CAVOK 10/06 Q1015 WIND 1119FT 05005KT
ENZV 161620Z 20013KT 9999 FEW016TCU BKN055 16/11 Q1015 NOSIG
TAF ENZV 1612/1712 19010KT 9999 FEW012 SCT050 
     PROB40 
     TEMPO 1612/1620 BKN012 
     TEMPO 1708/1712 18015G25KT SHRA BKN012 SCT020CB
       
ENST 161620Z 36006KT CAVOK 19/12 Q1010 RMK WIND 300FT 03004KT
ENSS 161550Z 32025KT 9999 SCT021 07/04 Q1020 RMK WIND 500FT 31021KT
ENTO 161620Z 19009KT CAVOK 17/11 Q1014 NOSIG
TAF ENTO 1612/1712 20010KT 3000 BR VV003 
     TEMPO 1612/1615 6000 BKN006 
     BECMG 1614/1616 9999 FEW008 SCT030
       
ENTC 161620Z 03012KT CAVOK 12/05 Q1015 NOSIG RMK WIND 2600FT 02011KT
TAF ENTC 1612/1712 03008KT 9999 FEW040 
     PROB30 
     TEMPO 1623/1703 BKN012
       
ENVA 161620Z 25009KT 9999 FEW072 BKN110 21/14 Q1010 RMK WIND 670FT 28013KT
AMD ENVA 1614/1712 VRB05KT 9999 SCT040 BKN070 
     TEMPO 1614/1712 27010KT 
     PROB30 
     TEMPO 1615/1618 TSRA SCT040CB BKN055 
     TEMPO 1623/1709 4000 -RADZ BKN010
       
ENAL 161620Z 26005KT 9999 FEW005 BKN057 13/12 Q1013
TAF ENAL 161400Z 1615/1621 27010KT 9999 -RA SCT008 BKN040 
     PROB40 1615/1621 4000 -DZ BKN005 BKN009